sensor_id;sensor_type;location;lat;lon;timestamp;P1;durP1;ratioP1;P2;durP2;ratioP2
59649;SDS011;46162;57.568;25.814;2023-05-29T00:00:06;5.28;;;0.40;;
59649;SDS011;46162;57.568;25.814;2023-05-29T00:02:35;8.18;;;0.70;;
59649;SDS011;46162;57.568;25.814;2023-05-29T00:05:04;5.40;;;0.40;;
59649;SDS011;46162;57.568;25.814;2023-05-29T00:07:33;6.97;;;0.45;;
59649;SDS011;46162;57.568;25.814;2023-05-29T00:10:02;5.07;;;0.40;;
59649;SDS011;46162;57.568;25.814;2023-05-29T00:12:31;4.43;;;0.30;;
59649;SDS011;46162;57.568;25.814;2023-05-29T00:15:00;3.40;;;0.57;;
59649;SDS011;46162;57.568;25.814;2023-05-29T00:17:32;8.37;;;0.60;;
59649;SDS011;46162;57.568;25.814;2023-05-29T00:20:00;2.92;;;0.45;;
59649;SDS011;46162;57.568;25.814;2023-05-29T00:22:34;2.85;;;0.65;;
59649;SDS011;46162;57.568;25.814;2023-05-29T00:25:04;10.82;;;0.70;;
59649;SDS011;46162;57.568;25.814;2023-05-29T00:27:34;5.35;;;0.98;;
59649;SDS011;46162;57.568;25.814;2023-05-29T00:30:03;5.03;;;0.77;;
59649;SDS011;46162;57.568;25.814;2023-05-29T00:32:34;6.18;;;0.90;;
59649;SDS011;46162;57.568;25.814;2023-05-29T00:35:03;5.90;;;0.60;;
59649;SDS011;46162;57.568;25.814;2023-05-29T00:37:34;7.13;;;0.77;;
59649;SDS011;46162;57.568;25.814;2023-05-29T00:40:03;5.90;;;0.57;;
59649;SDS011;46162;57.568;25.814;2023-05-29T00:42:34;3.22;;;0.60;;
59649;SDS011;46162;57.568;25.814;2023-05-29T00:45:02;4.18;;;0.50;;
59649;SDS011;46162;57.568;25.814;2023-05-29T00:47:32;7.38;;;0.55;;
59649;SDS011;46162;57.568;25.814;2023-05-29T00:50:02;3.83;;;0.70;;
59649;SDS011;46162;57.568;25.814;2023-05-29T00:52:31;5.57;;;0.88;;
59649;SDS011;46162;57.568;25.814;2023-05-29T00:55:00;4.53;;;0.50;;
59649;SDS011;46162;57.568;25.814;2023-05-29T00:57:30;5.55;;;0.77;;
59649;SDS011;46162;57.568;25.814;2023-05-29T00:59:59;3.67;;;0.57;;
59649;SDS011;46162;57.568;25.814;2023-05-29T01:02:32;5.20;;;0.40;;
59649;SDS011;46162;57.568;25.814;2023-05-29T01:05:04;4.28;;;0.55;;
59649;SDS011;46162;57.568;25.814;2023-05-29T01:07:33;3.92;;;0.40;;
59649;SDS011;46162;57.568;25.814;2023-05-29T01:10:02;3.58;;;0.38;;
59649;SDS011;46162;57.568;25.814;2023-05-29T01:12:36;4.30;;;0.40;;
59649;SDS011;46162;57.568;25.814;2023-05-29T01:15:18;2.30;;;0.40;;
59649;SDS011;46162;57.568;25.814;2023-05-29T01:18:03;3.35;;;0.38;;
59649;SDS011;46162;57.568;25.814;2023-05-29T01:20:38;5.72;;;0.77;;
59649;SDS011;46162;57.568;25.814;2023-05-29T01:23:19;2.63;;;0.40;;
59649;SDS011;46162;57.568;25.814;2023-05-29T01:26:11;6.00;;;1.17;;
59649;SDS011;46162;57.568;25.814;2023-05-29T01:28:55;5.65;;;0.65;;
59649;SDS011;46162;57.568;25.814;2023-05-29T01:31:27;2.72;;;0.38;;
59649;SDS011;46162;57.568;25.814;2023-05-29T01:33:57;5.35;;;0.68;;
59649;SDS011;46162;57.568;25.814;2023-05-29T01:36:27;4.15;;;0.75;;
59649;SDS011;46162;57.568;25.814;2023-05-29T01:38:56;6.85;;;0.73;;
59649;SDS011;46162;57.568;25.814;2023-05-29T01:41:26;8.38;;;0.85;;
59649;SDS011;46162;57.568;25.814;2023-05-29T01:43:59;9.23;;;0.68;;
59649;SDS011;46162;57.568;25.814;2023-05-29T01:46:30;7.00;;;0.50;;
59649;SDS011;46162;57.568;25.814;2023-05-29T01:48:59;4.68;;;0.60;;
59649;SDS011;46162;57.568;25.814;2023-05-29T01:51:28;3.92;;;0.52;;
59649;SDS011;46162;57.568;25.814;2023-05-29T01:53:58;4.35;;;0.60;;
59649;SDS011;46162;57.568;25.814;2023-05-29T01:56:27;2.85;;;0.35;;
59649;SDS011;46162;57.568;25.814;2023-05-29T01:58:59;6.55;;;0.85;;
59649;SDS011;46162;57.568;25.814;2023-05-29T02:01:31;7.45;;;0.68;;
59649;SDS011;46162;57.568;25.814;2023-05-29T02:04:00;3.50;;;0.60;;
59649;SDS011;46162;57.568;25.814;2023-05-29T02:06:28;5.97;;;0.63;;
59649;SDS011;46162;57.568;25.814;2023-05-29T02:08:57;4.70;;;0.63;;
59649;SDS011;46162;57.568;25.814;2023-05-29T02:11:26;5.22;;;0.80;;
59649;SDS011;46162;57.568;25.814;2023-05-29T02:13:55;5.70;;;0.75;;
59649;SDS011;46162;57.568;25.814;2023-05-29T02:16:26;7.07;;;0.70;;
59649;SDS011;46162;57.568;25.814;2023-05-29T02:18:55;8.45;;;0.82;;
59649;SDS011;46162;57.568;25.814;2023-05-29T02:21:24;3.70;;;0.55;;
59649;SDS011;46162;57.568;25.814;2023-05-29T02:23:52;7.57;;;0.60;;
59649;SDS011;46162;57.568;25.814;2023-05-29T02:26:21;18.90;;;1.25;;
59649;SDS011;46162;57.568;25.814;2023-05-29T02:28:50;12.15;;;1.08;;
59649;SDS011;46162;57.568;25.814;2023-05-29T02:31:19;14.68;;;1.15;;
59649;SDS011;46162;57.568;25.814;2023-05-29T02:33:49;10.25;;;0.98;;
59649;SDS011;46162;57.568;25.814;2023-05-29T02:36:18;4.97;;;0.95;;
59649;SDS011;46162;57.568;25.814;2023-05-29T02:38:47;5.10;;;0.50;;
59649;SDS011;46162;57.568;25.814;2023-05-29T02:41:16;7.35;;;1.13;;
59649;SDS011;46162;57.568;25.814;2023-05-29T02:43:44;8.50;;;1.33;;
59649;SDS011;46162;57.568;25.814;2023-05-29T02:46:13;5.60;;;0.80;;
59649;SDS011;46162;57.568;25.814;2023-05-29T02:48:42;4.97;;;0.90;;
59649;SDS011;46162;57.568;25.814;2023-05-29T02:51:12;7.03;;;0.98;;
59649;SDS011;46162;57.568;25.814;2023-05-29T02:53:41;10.98;;;1.17;;
59649;SDS011;46162;57.568;25.814;2023-05-29T02:56:10;7.35;;;0.90;;
59649;SDS011;46162;57.568;25.814;2023-05-29T02:58:39;4.13;;;0.77;;
59649;SDS011;46162;57.568;25.814;2023-05-29T03:01:07;6.30;;;0.80;;
59649;SDS011;46162;57.568;25.814;2023-05-29T03:03:36;4.95;;;0.80;;
59649;SDS011;46162;57.568;25.814;2023-05-29T03:06:05;10.93;;;1.25;;
59649;SDS011;46162;57.568;25.814;2023-05-29T03:08:36;6.60;;;0.73;;
59649;SDS011;46162;57.568;25.814;2023-05-29T03:11:06;6.90;;;0.98;;
59649;SDS011;46162;57.568;25.814;2023-05-29T03:16:08;5.82;;;0.80;;
59649;SDS011;46162;57.568;25.814;2023-05-29T03:18:38;12.45;;;1.75;;
59649;SDS011;46162;57.568;25.814;2023-05-29T03:21:08;5.25;;;0.70;;
59649;SDS011;46162;57.568;25.814;2023-05-29T03:23:39;6.90;;;0.98;;
59649;SDS011;46162;57.568;25.814;2023-05-29T03:26:07;8.73;;;1.02;;
59649;SDS011;46162;57.568;25.814;2023-05-29T03:28:38;7.05;;;1.20;;
59649;SDS011;46162;57.568;25.814;2023-05-29T03:31:08;8.63;;;0.80;;
59649;SDS011;46162;57.568;25.814;2023-05-29T03:33:37;8.50;;;1.00;;
59649;SDS011;46162;57.568;25.814;2023-05-29T03:36:26;5.70;;;0.90;;
59649;SDS011;46162;57.568;25.814;2023-05-29T03:38:57;4.93;;;0.70;;
59649;SDS011;46162;57.568;25.814;2023-05-29T03:41:30;7.72;;;0.90;;
59649;SDS011;46162;57.568;25.814;2023-05-29T03:43:59;6.60;;;0.93;;
59649;SDS011;46162;57.568;25.814;2023-05-29T03:46:28;5.85;;;0.68;;
59649;SDS011;46162;57.568;25.814;2023-05-29T03:48:59;6.63;;;1.20;;
59649;SDS011;46162;57.568;25.814;2023-05-29T03:51:29;7.78;;;1.20;;
59649;SDS011;46162;57.568;25.814;2023-05-29T03:54:00;8.80;;;1.67;;
59649;SDS011;46162;57.568;25.814;2023-05-29T03:56:29;9.50;;;1.17;;
59649;SDS011;46162;57.568;25.814;2023-05-29T03:58:58;6.13;;;1.00;;
59649;SDS011;46162;57.568;25.814;2023-05-29T04:01:27;6.85;;;1.00;;
59649;SDS011;46162;57.568;25.814;2023-05-29T04:03:55;8.90;;;1.17;;
59649;SDS011;46162;57.568;25.814;2023-05-29T04:06:24;9.02;;;1.08;;
59649;SDS011;46162;57.568;25.814;2023-05-29T04:08:56;8.70;;;1.33;;
59649;SDS011;46162;57.568;25.814;2023-05-29T04:11:29;10.15;;;1.42;;
59649;SDS011;46162;57.568;25.814;2023-05-29T04:14:01;6.53;;;1.38;;
59649;SDS011;46162;57.568;25.814;2023-05-29T04:16:30;6.18;;;0.90;;
59649;SDS011;46162;57.568;25.814;2023-05-29T04:18:59;6.85;;;1.38;;
59649;SDS011;46162;57.568;25.814;2023-05-29T04:21:31;6.10;;;1.30;;
59649;SDS011;46162;57.568;25.814;2023-05-29T04:24:01;10.32;;;1.50;;
59649;SDS011;46162;57.568;25.814;2023-05-29T04:26:31;8.13;;;1.45;;
59649;SDS011;46162;57.568;25.814;2023-05-29T04:29:00;8.65;;;1.88;;
59649;SDS011;46162;57.568;25.814;2023-05-29T04:34:02;10.80;;;2.03;;
59649;SDS011;46162;57.568;25.814;2023-05-29T04:36:32;9.38;;;1.45;;
59649;SDS011;46162;57.568;25.814;2023-05-29T04:39:11;15.27;;;2.13;;
59649;SDS011;46162;57.568;25.814;2023-05-29T04:41:41;10.25;;;2.03;;
59649;SDS011;46162;57.568;25.814;2023-05-29T04:44:15;12.90;;;2.10;;
59649;SDS011;46162;57.568;25.814;2023-05-29T04:46:47;8.70;;;1.75;;
59649;SDS011;46162;57.568;25.814;2023-05-29T04:49:19;12.60;;;1.48;;
59649;SDS011;46162;57.568;25.814;2023-05-29T04:51:48;12.10;;;1.73;;
59649;SDS011;46162;57.568;25.814;2023-05-29T04:54:21;16.00;;;2.17;;
59649;SDS011;46162;57.568;25.814;2023-05-29T04:56:54;11.95;;;1.55;;
59649;SDS011;46162;57.568;25.814;2023-05-29T04:59:28;10.20;;;2.10;;
59649;SDS011;46162;57.568;25.814;2023-05-29T05:01:57;12.43;;;1.90;;
59649;SDS011;46162;57.568;25.814;2023-05-29T05:04:26;10.82;;;1.35;;
59649;SDS011;46162;57.568;25.814;2023-05-29T05:06:55;11.00;;;1.83;;
59649;SDS011;46162;57.568;25.814;2023-05-29T05:09:24;10.70;;;1.80;;
59649;SDS011;46162;57.568;25.814;2023-05-29T05:11:55;13.15;;;1.83;;
59649;SDS011;46162;57.568;25.814;2023-05-29T05:14:24;14.63;;;1.90;;
59649;SDS011;46162;57.568;25.814;2023-05-29T05:16:56;16.05;;;2.15;;
59649;SDS011;46162;57.568;25.814;2023-05-29T05:19:25;14.88;;;2.30;;
59649;SDS011;46162;57.568;25.814;2023-05-29T05:21:54;8.85;;;1.35;;
59649;SDS011;46162;57.568;25.814;2023-05-29T05:24:23;12.45;;;2.30;;
59649;SDS011;46162;57.568;25.814;2023-05-29T05:26:52;13.55;;;2.00;;
59649;SDS011;46162;57.568;25.814;2023-05-29T05:29:22;7.47;;;1.30;;
59649;SDS011;46162;57.568;25.814;2023-05-29T05:31:53;15.77;;;1.75;;
59649;SDS011;46162;57.568;25.814;2023-05-29T05:34:23;10.02;;;1.50;;
59649;SDS011;46162;57.568;25.814;2023-05-29T05:36:51;10.05;;;1.35;;
59649;SDS011;46162;57.568;25.814;2023-05-29T05:39:20;11.63;;;1.70;;
59649;SDS011;46162;57.568;25.814;2023-05-29T05:41:49;9.88;;;1.52;;
59649;SDS011;46162;57.568;25.814;2023-05-29T05:44:37;12.25;;;2.03;;
59649;SDS011;46162;57.568;25.814;2023-05-29T05:47:10;10.77;;;1.20;;
59649;SDS011;46162;57.568;25.814;2023-05-29T05:49:39;12.43;;;1.55;;
59649;SDS011;46162;57.568;25.814;2023-05-29T05:52:08;8.30;;;1.27;;
59649;SDS011;46162;57.568;25.814;2023-05-29T05:54:36;10.35;;;1.65;;
59649;SDS011;46162;57.568;25.814;2023-05-29T05:57:05;8.40;;;1.38;;
59649;SDS011;46162;57.568;25.814;2023-05-29T05:59:37;13.63;;;1.80;;
59649;SDS011;46162;57.568;25.814;2023-05-29T06:02:06;14.45;;;1.38;;
59649;SDS011;46162;57.568;25.814;2023-05-29T06:04:36;9.93;;;1.42;;
59649;SDS011;46162;57.568;25.814;2023-05-29T06:07:04;9.10;;;1.27;;
59649;SDS011;46162;57.568;25.814;2023-05-29T06:09:34;10.10;;;1.55;;
59649;SDS011;46162;57.568;25.814;2023-05-29T06:12:06;11.43;;;1.63;;
59649;SDS011;46162;57.568;25.814;2023-05-29T06:14:43;9.05;;;1.60;;
59649;SDS011;46162;57.568;25.814;2023-05-29T06:17:12;12.93;;;1.85;;
59649;SDS011;46162;57.568;25.814;2023-05-29T06:19:40;10.45;;;1.48;;
59649;SDS011;46162;57.568;25.814;2023-05-29T06:22:10;10.18;;;1.52;;
59649;SDS011;46162;57.568;25.814;2023-05-29T06:24:39;11.10;;;1.73;;
59649;SDS011;46162;57.568;25.814;2023-05-29T06:27:07;11.05;;;1.73;;
59649;SDS011;46162;57.568;25.814;2023-05-29T06:29:36;11.93;;;1.95;;
59649;SDS011;46162;57.568;25.814;2023-05-29T06:32:07;11.60;;;1.65;;
59649;SDS011;46162;57.568;25.814;2023-05-29T06:34:36;13.80;;;2.20;;
59649;SDS011;46162;57.568;25.814;2023-05-29T06:37:05;8.30;;;1.40;;
59649;SDS011;46162;57.568;25.814;2023-05-29T06:39:34;24.10;;;2.10;;
59649;SDS011;46162;57.568;25.814;2023-05-29T06:42:03;10.32;;;1.50;;
59649;SDS011;46162;57.568;25.814;2023-05-29T06:44:40;7.20;;;1.65;;
59649;SDS011;46162;57.568;25.814;2023-05-29T06:47:11;8.80;;;1.73;;
59649;SDS011;46162;57.568;25.814;2023-05-29T06:49:39;6.63;;;0.90;;
59649;SDS011;46162;57.568;25.814;2023-05-29T06:52:08;13.02;;;1.13;;
59649;SDS011;46162;57.568;25.814;2023-05-29T06:54:55;8.30;;;1.25;;
59649;SDS011;46162;57.568;25.814;2023-05-29T06:57:24;7.45;;;1.08;;
59649;SDS011;46162;57.568;25.814;2023-05-29T06:59:53;9.73;;;1.27;;
59649;SDS011;46162;57.568;25.814;2023-05-29T07:02:24;6.50;;;1.10;;
59649;SDS011;46162;57.568;25.814;2023-05-29T07:04:56;8.27;;;0.77;;
59649;SDS011;46162;57.568;25.814;2023-05-29T07:07:26;11.05;;;1.02;;
59649;SDS011;46162;57.568;25.814;2023-05-29T07:09:55;11.88;;;1.00;;
59649;SDS011;46162;57.568;25.814;2023-05-29T07:12:23;8.55;;;1.33;;
59649;SDS011;46162;57.568;25.814;2023-05-29T07:14:52;6.40;;;0.82;;
59649;SDS011;46162;57.568;25.814;2023-05-29T07:17:21;12.75;;;1.70;;
59649;SDS011;46162;57.568;25.814;2023-05-29T07:20:03;7.45;;;1.05;;
59649;SDS011;46162;57.568;25.814;2023-05-29T07:22:36;8.80;;;1.13;;
59649;SDS011;46162;57.568;25.814;2023-05-29T07:25:05;7.03;;;1.02;;
59649;SDS011;46162;57.568;25.814;2023-05-29T07:27:35;11.25;;;1.48;;
59649;SDS011;46162;57.568;25.814;2023-05-29T07:30:04;6.35;;;1.50;;
59649;SDS011;46162;57.568;25.814;2023-05-29T07:32:35;9.65;;;1.27;;
59649;SDS011;46162;57.568;25.814;2023-05-29T07:35:06;12.38;;;1.30;;
59649;SDS011;46162;57.568;25.814;2023-05-29T07:37:36;9.05;;;1.30;;
59649;SDS011;46162;57.568;25.814;2023-05-29T07:40:05;8.63;;;1.38;;
59649;SDS011;46162;57.568;25.814;2023-05-29T07:42:52;7.80;;;1.23;;
59649;SDS011;46162;57.568;25.814;2023-05-29T07:45:22;10.13;;;1.30;;
59649;SDS011;46162;57.568;25.814;2023-05-29T07:47:51;12.18;;;1.38;;
59649;SDS011;46162;57.568;25.814;2023-05-29T07:50:22;10.18;;;1.52;;
59649;SDS011;46162;57.568;25.814;2023-05-29T07:52:51;7.10;;;1.23;;
59649;SDS011;46162;57.568;25.814;2023-05-29T07:55:23;10.63;;;1.50;;
59649;SDS011;46162;57.568;25.814;2023-05-29T07:57:51;7.57;;;0.82;;
59649;SDS011;46162;57.568;25.814;2023-05-29T08:00:21;30.60;;;1.75;;
59649;SDS011;46162;57.568;25.814;2023-05-29T08:02:51;11.27;;;1.52;;
59649;SDS011;46162;57.568;25.814;2023-05-29T08:05:48;5.32;;;1.17;;
59649;SDS011;46162;57.568;25.814;2023-05-29T08:08:18;6.78;;;0.95;;
59649;SDS011;46162;57.568;25.814;2023-05-29T08:10:47;10.82;;;1.63;;
59649;SDS011;46162;57.568;25.814;2023-05-29T08:13:16;8.35;;;1.17;;
59649;SDS011;46162;57.568;25.814;2023-05-29T08:15:45;9.35;;;1.67;;
59649;SDS011;46162;57.568;25.814;2023-05-29T08:18:14;7.35;;;1.23;;
59649;SDS011;46162;57.568;25.814;2023-05-29T08:20:43;11.68;;;1.50;;
59649;SDS011;46162;57.568;25.814;2023-05-29T08:23:13;8.35;;;1.33;;
59649;SDS011;46162;57.568;25.814;2023-05-29T08:25:42;8.57;;;1.38;;
59649;SDS011;46162;57.568;25.814;2023-05-29T08:28:11;10.80;;;1.55;;
59649;SDS011;46162;57.568;25.814;2023-05-29T08:30:40;8.13;;;1.13;;
59649;SDS011;46162;57.568;25.814;2023-05-29T08:33:09;8.13;;;1.17;;
59649;SDS011;46162;57.568;25.814;2023-05-29T08:35:38;8.38;;;1.00;;
59649;SDS011;46162;57.568;25.814;2023-05-29T08:38:06;9.10;;;0.80;;
59649;SDS011;46162;57.568;25.814;2023-05-29T08:40:37;44.40;;;2.08;;
59649;SDS011;46162;57.568;25.814;2023-05-29T08:43:06;10.18;;;1.10;;
59649;SDS011;46162;57.568;25.814;2023-05-29T08:45:42;15.45;;;1.42;;
59649;SDS011;46162;57.568;25.814;2023-05-29T08:48:11;6.47;;;0.90;;
59649;SDS011;46162;57.568;25.814;2023-05-29T08:50:41;7.45;;;1.35;;
59649;SDS011;46162;57.568;25.814;2023-05-29T08:53:13;7.82;;;0.85;;
59649;SDS011;46162;57.568;25.814;2023-05-29T08:55:44;8.20;;;0.70;;
59649;SDS011;46162;57.568;25.814;2023-05-29T08:58:15;8.68;;;1.08;;
59649;SDS011;46162;57.568;25.814;2023-05-29T09:00:44;8.35;;;1.00;;
59649;SDS011;46162;57.568;25.814;2023-05-29T09:03:15;9.77;;;1.35;;
59649;SDS011;46162;57.568;25.814;2023-05-29T09:05:44;9.30;;;1.00;;
59649;SDS011;46162;57.568;25.814;2023-05-29T09:08:13;13.00;;;1.42;;
59649;SDS011;46162;57.568;25.814;2023-05-29T09:10:42;9.88;;;1.23;;
59649;SDS011;46162;57.568;25.814;2023-05-29T09:13:13;5.38;;;1.10;;
59649;SDS011;46162;57.568;25.814;2023-05-29T09:15:42;6.03;;;1.08;;
59649;SDS011;46162;57.568;25.814;2023-05-29T09:18:11;9.32;;;1.08;;
59649;SDS011;46162;57.568;25.814;2023-05-29T09:20:40;11.45;;;1.42;;
59649;SDS011;46162;57.568;25.814;2023-05-29T09:23:08;8.80;;;0.93;;
59649;SDS011;46162;57.568;25.814;2023-05-29T09:25:39;5.75;;;0.70;;
59649;SDS011;46162;57.568;25.814;2023-05-29T09:28:10;7.82;;;1.05;;
59649;SDS011;46162;57.568;25.814;2023-05-29T09:30:41;6.60;;;1.00;;
59649;SDS011;46162;57.568;25.814;2023-05-29T09:33:12;6.32;;;0.70;;
59649;SDS011;46162;57.568;25.814;2023-05-29T09:35:43;6.30;;;0.95;;
59649;SDS011;46162;57.568;25.814;2023-05-29T09:41:03;6.68;;;1.02;;
59649;SDS011;46162;57.568;25.814;2023-05-29T09:43:32;10.27;;;1.10;;
59649;SDS011;46162;57.568;25.814;2023-05-29T09:46:03;9.35;;;1.55;;
59649;SDS011;46162;57.568;25.814;2023-05-29T09:48:35;7.88;;;1.00;;
59649;SDS011;46162;57.568;25.814;2023-05-29T09:51:04;12.23;;;1.40;;
59649;SDS011;46162;57.568;25.814;2023-05-29T09:53:32;8.65;;;1.40;;
59649;SDS011;46162;57.568;25.814;2023-05-29T09:56:01;6.90;;;1.08;;
59649;SDS011;46162;57.568;25.814;2023-05-29T09:58:31;8.43;;;1.20;;
59649;SDS011;46162;57.568;25.814;2023-05-29T10:01:03;6.88;;;0.93;;
59649;SDS011;46162;57.568;25.814;2023-05-29T10:03:32;9.07;;;1.23;;
59649;SDS011;46162;57.568;25.814;2023-05-29T10:06:01;6.93;;;1.15;;
59649;SDS011;46162;57.568;25.814;2023-05-29T10:08:36;6.53;;;1.52;;
59649;SDS011;46162;57.568;25.814;2023-05-29T10:11:07;9.00;;;0.90;;
59649;SDS011;46162;57.568;25.814;2023-05-29T10:13:42;10.07;;;1.38;;
59649;SDS011;46162;57.568;25.814;2023-05-29T10:16:18;7.45;;;0.80;;
59649;SDS011;46162;57.568;25.814;2023-05-29T10:18:50;7.32;;;1.00;;
59649;SDS011;46162;57.568;25.814;2023-05-29T10:21:23;5.70;;;1.10;;
59649;SDS011;46162;57.568;25.814;2023-05-29T10:23:54;5.20;;;0.77;;
59649;SDS011;46162;57.568;25.814;2023-05-29T10:26:25;5.60;;;0.70;;
59649;SDS011;46162;57.568;25.814;2023-05-29T10:28:58;3.97;;;0.60;;
59649;SDS011;46162;57.568;25.814;2023-05-29T10:31:38;4.57;;;0.50;;
59649;SDS011;46162;57.568;25.814;2023-05-29T10:34:14;9.20;;;0.88;;
59649;SDS011;46162;57.568;25.814;2023-05-29T10:36:55;6.00;;;1.00;;
59649;SDS011;46162;57.568;25.814;2023-05-29T10:39:42;8.25;;;0.60;;
59649;SDS011;46162;57.568;25.814;2023-05-29T10:48:42;6.70;;;0.80;;
59649;SDS011;46162;57.568;25.814;2023-05-29T10:53:56;3.95;;;0.60;;
59649;SDS011;46162;57.568;25.814;2023-05-29T10:56:27;5.30;;;0.75;;
59649;SDS011;46162;57.568;25.814;2023-05-29T10:58:58;4.97;;;0.68;;
59649;SDS011;46162;57.568;25.814;2023-05-29T11:01:29;4.22;;;0.50;;
59649;SDS011;46162;57.568;25.814;2023-05-29T11:07:00;16.08;;;1.20;;
59649;SDS011;46162;57.568;25.814;2023-05-29T11:09:33;23.15;;;1.15;;
59649;SDS011;46162;57.568;25.814;2023-05-29T11:12:16;8.10;;;0.90;;
59649;SDS011;46162;57.568;25.814;2023-05-29T11:15:04;7.32;;;1.05;;
59649;SDS011;46162;57.568;25.814;2023-05-29T11:17:46;10.57;;;0.82;;
59649;SDS011;46162;57.568;25.814;2023-05-29T11:20:24;7.57;;;0.77;;
59649;SDS011;46162;57.568;25.814;2023-05-29T11:23:04;5.57;;;0.70;;
59649;SDS011;46162;57.568;25.814;2023-05-29T11:25:36;6.95;;;0.60;;
59649;SDS011;46162;57.568;25.814;2023-05-29T11:28:05;7.40;;;1.13;;
59649;SDS011;46162;57.568;25.814;2023-05-29T11:30:40;7.20;;;0.60;;
59649;SDS011;46162;57.568;25.814;2023-05-29T11:33:12;10.38;;;0.95;;
59649;SDS011;46162;57.568;25.814;2023-05-29T11:35:54;7.95;;;0.80;;
59649;SDS011;46162;57.568;25.814;2023-05-29T11:38:24;6.55;;;0.70;;
59649;SDS011;46162;57.568;25.814;2023-05-29T11:40:54;7.65;;;0.63;;
59649;SDS011;46162;57.568;25.814;2023-05-29T11:43:23;7.07;;;0.60;;
59649;SDS011;46162;57.568;25.814;2023-05-29T11:45:53;6.37;;;0.60;;
59649;SDS011;46162;57.568;25.814;2023-05-29T11:48:22;6.43;;;0.93;;
59649;SDS011;46162;57.568;25.814;2023-05-29T11:50:51;5.75;;;0.70;;
59649;SDS011;46162;57.568;25.814;2023-05-29T11:53:22;7.40;;;0.80;;
59649;SDS011;46162;57.568;25.814;2023-05-29T11:55:54;8.82;;;1.10;;
59649;SDS011;46162;57.568;25.814;2023-05-29T11:58:35;7.82;;;0.93;;
59649;SDS011;46162;57.568;25.814;2023-05-29T12:01:04;7.50;;;0.85;;
59649;SDS011;46162;57.568;25.814;2023-05-29T12:03:37;8.95;;;0.82;;
59649;SDS011;46162;57.568;25.814;2023-05-29T12:06:08;5.43;;;0.73;;
59649;SDS011;46162;57.568;25.814;2023-05-29T12:08:39;6.45;;;0.57;;
59649;SDS011;46162;57.568;25.814;2023-05-29T12:11:08;5.78;;;0.60;;
59649;SDS011;46162;57.568;25.814;2023-05-29T12:13:36;11.85;;;1.13;;
59649;SDS011;46162;57.568;25.814;2023-05-29T12:16:05;7.90;;;1.08;;
59649;SDS011;46162;57.568;25.814;2023-05-29T12:18:34;10.45;;;0.98;;
59649;SDS011;46162;57.568;25.814;2023-05-29T12:21:03;8.60;;;0.60;;
59649;SDS011;46162;57.568;25.814;2023-05-29T12:23:32;4.30;;;0.60;;
59649;SDS011;46162;57.568;25.814;2023-05-29T12:26:03;6.18;;;1.52;;
59649;SDS011;46162;57.568;25.814;2023-05-29T12:28:33;6.05;;;0.55;;
59649;SDS011;46162;57.568;25.814;2023-05-29T12:31:02;3.60;;;0.50;;
59649;SDS011;46162;57.568;25.814;2023-05-29T12:33:31;5.20;;;0.50;;
59649;SDS011;46162;57.568;25.814;2023-05-29T12:36:01;4.20;;;0.60;;
59649;SDS011;46162;57.568;25.814;2023-05-29T12:38:30;3.63;;;0.50;;
59649;SDS011;46162;57.568;25.814;2023-05-29T12:40:59;6.95;;;0.50;;
59649;SDS011;46162;57.568;25.814;2023-05-29T12:43:29;10.57;;;0.93;;
59649;SDS011;46162;57.568;25.814;2023-05-29T12:45:58;5.13;;;0.75;;
59649;SDS011;46162;57.568;25.814;2023-05-29T12:48:27;7.38;;;0.70;;
59649;SDS011;46162;57.568;25.814;2023-05-29T12:50:56;6.40;;;0.70;;
59649;SDS011;46162;57.568;25.814;2023-05-29T12:53:27;7.88;;;0.75;;
59649;SDS011;46162;57.568;25.814;2023-05-29T12:55:58;7.60;;;0.82;;
59649;SDS011;46162;57.568;25.814;2023-05-29T12:58:31;8.23;;;0.70;;
59649;SDS011;46162;57.568;25.814;2023-05-29T13:00:59;7.47;;;1.13;;
59649;SDS011;46162;57.568;25.814;2023-05-29T13:03:28;8.00;;;0.80;;
59649;SDS011;46162;57.568;25.814;2023-05-29T13:05:57;5.85;;;0.60;;
59649;SDS011;46162;57.568;25.814;2023-05-29T13:08:26;7.82;;;0.60;;
59649;SDS011;46162;57.568;25.814;2023-05-29T13:10:54;9.32;;;0.70;;
59649;SDS011;46162;57.568;25.814;2023-05-29T13:13:23;5.43;;;0.73;;
59649;SDS011;46162;57.568;25.814;2023-05-29T13:15:54;8.73;;;0.75;;
59649;SDS011;46162;57.568;25.814;2023-05-29T13:20:51;4.45;;;0.63;;
59649;SDS011;46162;57.568;25.814;2023-05-29T13:23:20;9.45;;;0.77;;
59649;SDS011;46162;57.568;25.814;2023-05-29T13:25:49;6.93;;;0.63;;
59649;SDS011;46162;57.568;25.814;2023-05-29T13:28:18;6.97;;;0.77;;
59649;SDS011;46162;57.568;25.814;2023-05-29T13:30:46;8.68;;;0.80;;
59649;SDS011;46162;57.568;25.814;2023-05-29T13:33:16;8.07;;;0.63;;
59649;SDS011;46162;57.568;25.814;2023-05-29T13:35:45;6.03;;;0.77;;
59649;SDS011;46162;57.568;25.814;2023-05-29T13:38:14;4.88;;;0.70;;
59649;SDS011;46162;57.568;25.814;2023-05-29T13:40:43;5.93;;;0.60;;
59649;SDS011;46162;57.568;25.814;2023-05-29T13:43:11;4.57;;;0.70;;
59649;SDS011;46162;57.568;25.814;2023-05-29T13:45:40;5.72;;;0.70;;
59649;SDS011;46162;57.568;25.814;2023-05-29T13:48:08;8.75;;;0.57;;
59649;SDS011;46162;57.568;25.814;2023-05-29T13:50:39;8.45;;;0.60;;
59649;SDS011;46162;57.568;25.814;2023-05-29T13:53:07;10.48;;;0.60;;
59649;SDS011;46162;57.568;25.814;2023-05-29T13:55:36;6.95;;;0.55;;
59649;SDS011;46162;57.568;25.814;2023-05-29T13:58:05;5.47;;;0.40;;
59649;SDS011;46162;57.568;25.814;2023-05-29T14:00:33;10.13;;;0.98;;
59649;SDS011;46162;57.568;25.814;2023-05-29T14:03:02;9.85;;;0.70;;
59649;SDS011;46162;57.568;25.814;2023-05-29T14:05:31;11.68;;;1.08;;
59649;SDS011;46162;57.568;25.814;2023-05-29T14:08:01;4.50;;;0.65;;
59649;SDS011;46162;57.568;25.814;2023-05-29T14:10:30;7.40;;;0.75;;
59649;SDS011;46162;57.568;25.814;2023-05-29T14:13:00;10.23;;;0.98;;
59649;SDS011;46162;57.568;25.814;2023-05-29T14:15:28;9.05;;;0.80;;
59649;SDS011;46162;57.568;25.814;2023-05-29T14:17:57;7.22;;;1.20;;
59649;SDS011;46162;57.568;25.814;2023-05-29T14:20:26;5.63;;;0.55;;
59649;SDS011;46162;57.568;25.814;2023-05-29T14:22:55;10.80;;;0.82;;
59649;SDS011;46162;57.568;25.814;2023-05-29T14:25:25;8.70;;;0.63;;
59649;SDS011;46162;57.568;25.814;2023-05-29T14:27:54;6.22;;;0.45;;
59649;SDS011;46162;57.568;25.814;2023-05-29T14:30:23;7.88;;;0.65;;
59649;SDS011;46162;57.568;25.814;2023-05-29T14:32:54;65.07;;;3.10;;
59649;SDS011;46162;57.568;25.814;2023-05-29T14:35:24;11.55;;;0.95;;
59649;SDS011;46162;57.568;25.814;2023-05-29T14:37:53;13.13;;;1.02;;
59649;SDS011;46162;57.568;25.814;2023-05-29T14:40:22;7.10;;;0.85;;
59649;SDS011;46162;57.568;25.814;2023-05-29T14:42:52;7.03;;;0.60;;
59649;SDS011;46162;57.568;25.814;2023-05-29T14:45:21;3.42;;;0.40;;
59649;SDS011;46162;57.568;25.814;2023-05-29T14:47:49;6.75;;;0.52;;
59649;SDS011;46162;57.568;25.814;2023-05-29T14:50:18;4.80;;;0.30;;
59649;SDS011;46162;57.568;25.814;2023-05-29T14:52:47;5.25;;;0.43;;
59649;SDS011;46162;57.568;25.814;2023-05-29T14:55:15;12.35;;;0.73;;
59649;SDS011;46162;57.568;25.814;2023-05-29T14:57:44;7.78;;;0.47;;
59649;SDS011;46162;57.568;25.814;2023-05-29T15:00:15;5.40;;;0.32;;
59649;SDS011;46162;57.568;25.814;2023-05-29T15:02:46;6.85;;;0.68;;
59649;SDS011;46162;57.568;25.814;2023-05-29T15:05:15;4.95;;;0.40;;
59649;SDS011;46162;57.568;25.814;2023-05-29T15:07:45;7.60;;;0.40;;
59649;SDS011;46162;57.568;25.814;2023-05-29T15:10:14;4.10;;;0.50;;
59649;SDS011;46162;57.568;25.814;2023-05-29T15:12:47;5.30;;;0.50;;